AirNav   TITAN Aviation Fuels
 
 1025 users online  

KVLL Oakland/Troy Airport
Troy, Michigan, USA

GOING TO TROY?


FAA INFORMATION EFFECTIVE 17 JUNE 2021

Location

FAA Identifier: VLL
Lat/Long: 42-32-34.6000N 083-10-40.4000W
42-32.576667N 083-10.673333W
42.5429444,-83.1778889
(estimated)
Elevation: 727.2 ft. / 221.7 m (surveyed)
Variation: 06W (1995)
From city: 2 miles E of TROY, MI
Time zone: UTC -4 (UTC -5 during Standard Time)
Zip code: 48084

Airport Operations

Airport use: Open to the public
Control tower: no
ARTCC: CLEVELAND CENTER
FSS: LANSING FLIGHT SERVICE STATION
NOTAMs facility: VLL (NOTAM-D service available)
Attendance: 0800-1800
Pattern altitude: 1727.2 ft. MSL
Wind indicator: lighted
Segmented circle: no
Lights: ACTVT MIRL RY 09/27 & PAPI RYS 09 & 27 - CTAF.
Beacon: white-green (lighted land airport)
Operates sunset to sunrise.
Landing fee: yes

Airport Communications

CTAF/UNICOM: 123.05
WX AWOS-3: 119.475 (248-288-4649)
DETROIT APPROACH: 134.3
DETROIT DEPARTURE: 134.3
WX ASOS at DET (11 nm SE): PHONE 313-371-9696
WX ASOS at PTK (13 nm NW): 125.025 (248-886-8551)

Nearby radio navigation aids

VOR radial/distance  VOR name  Freq  Var
SVMr069/20.1SALEM VORTAC114.3003W
DXOr029/21.5DETROIT VOR/DME113.4006W
CRLr026/32.2CARLETON VOR/DME115.7003W
FNTr141/35.7FLINT VORTAC116.9006W

 
NDB name  Hdg/Dist  Freq  Var  ID
GROSSE ILE005/26.541907WRYS .-. -.-- ...

Airport Services

Fuel available: 100LL JET-A
Parking: tiedowns
Airframe service: NONE
Powerplant service: NONE

Runway Information

Runway 9/27

Dimensions: 3549 x 60 ft. / 1082 x 18 m
Surface: asphalt, in fair condition
Runway edge lights: medium intensity
RUNWAY 9  RUNWAY 27
Latitude: 42-32.575973N42-32.578848N
Longitude: 083-11.068925W083-10.278788W
Elevation: 727.0 ft.701.0 ft.
Traffic pattern: leftleft
Runway heading: 096 magnetic, 090 true276 magnetic, 270 true
Markings: nonprecision, in good conditionnonprecision, in good condition
Visual slope indicator: 2-light PAPI on right (3.75 degrees glide path)2-light PAPI on left (3.75 degrees glide path)
Runway end identifier lights: nono
Touchdown point: yes, no lightsyes, no lights
Obstructions: 19 ft. tree, 207 ft. from runway, 137 ft. right of centerline30 ft. tree, 200 ft. from runway, 125 ft. left of centerline

Airport Ownership and Management from official FAA records

Ownership: Publicly-owned
Owner: OAKLAND COUNTY
6500 HIGHLAND RD
WATERFORD, MI 48327
Phone 248-288-6100
Manager: CHERYL BUSH
6500 HIGHLAND RD
WATERFORD, MI 48327
Phone 248-666-3900
ARPT PHYS ADS: 2672 INDUSTRIAL ROW DR, TROY, MI 48084.

Airport Operational Statistics

Aircraft based on the field: 108
Single engine airplanes: 97
Multi engine airplanes: 5
Helicopters: 5
Ultralights: 1
    
Aircraft operations: avg 82/day *
50% transient general aviation
50% local general aviation
* for 12-month period ending 31 December 2019

Additional Remarks

DEER AND BIRDS ON & INVOF ARPT.
RY 09 +3 FT BERM 316 FT FM THLD.
NO TGL OR PRACTICE TFC PATTERNS.
FOR CD CTC DETROIT APCH AT 800-499-8181.

Instrument Procedures

NOTE: All procedures below are presented as PDF files. If you need a reader for these files, you should download the free Adobe Reader.

NOT FOR NAVIGATION. Please procure official charts for flight.
FAA instrument procedures published for use from 17 June 2021 at 0901Z to 15 July 2021 at 0900Z.

 
STARs - Standard Terminal Arrivals
FOREY TWO (RNAV)   download (167KB)
OKLND ONE (RNAV)   download (149KB)
PETTE TWO (RNAV)   download (210KB)
RRALF THREE (RNAV)   download (169KB)
 
IAPs - Instrument Approach Procedures
RNAV (GPS) RWY 09   download (184KB)
 
Departure Procedures
BARII TWO (RNAV)   download (161KB)
CCOBB TWO (RNAV)   download (206KB)
CLVIN TWO (RNAV)   download (176KB)
HHOWE THREE (RNAV)   download (193KB)
KAYLN TWO (RNAV)   download (170KB)
LIDDS TWO (RNAV)   download (184KB)
MIGGY TWO (RNAV)   download (204KB)
PAVYL TWO (RNAV)   download (181KB)
SNDRS TWO (RNAV)   download (217KB)
TRMML THREE (RNAV)   download (166KB)
ZETTR THREE (RNAV)   download (208KB)
NOTE: Special Take-Off Minimums/Departure Procedures apply   download (125KB)

Other nearby airports with instrument procedures:

KDET - Coleman A Young Municipal Airport (11 nm SE)
KPTK - Oakland County International Airport (13 nm NW)
KMTC - Selfridge Air National Guard Base (16 nm E)
1D2 - Canton-Plymouth-Mettetal Airport (17 nm SW)
57D - Ray Community Airport (17 nm NE)
D98 - Romeo State Airport (18 nm NE)
Y47 - Oakland Southwest Airport (20 nm W)
 
Loc | Ops | Rwys | IFR | FBO | Links
Com | Nav | Svcs | Stats | Notes
Area around KVLL (Oakland/Troy Airport)
 
Road maps at: MapQuest Bing Google
 
Aerial photo
WARNING: Photo may not be current or correct
Aerial photo of KVLL (Oakland/Troy Airport)
Photo by Jeff Schuster
Photo taken 29-Jun-2014
looking west.

Do you have a better or more recent aerial photo of Oakland/Troy Airport that you would like to share? If so, please send us your photo.

 
Sectional chart

 
Airport distance calculator
Flying to Oakland/Troy Airport? Find the distance to fly.

From to KVLL

Sunrise and sunset
Times for 19-Jun-2021
 Local
(UTC-4)
 Zulu
(UTC)
Morning civil twilight05:2109:21
Sunrise05:5609:56
Sunset21:1201:12
Evening civil twilight21:4701:47

Current date and time
Zulu (UTC)  19-Jun-2021 14:35:07
Local (UTC-4)  19-Jun-2021 10:35:07
 
METAR
KVLL 191415Z AUTO 25010G14KT 10SM CLR 24/19 A2981 RMK AO2 T02400185
KDET 
11nm SE 
191353Z 24008KT 8SM CLR 26/20 A2979 RMK AO2 SLP082 T02560200 $
KPTK 
13nm NW 
191353Z 27010KT 10SM FEW033 SCT075 OVC160 24/17 A2977 RMK AO2 SLP075 VIRGA SW T02390172 $
KMTC 
17nm E 
191356Z 22009KT 10SM FEW050 BKN100 BKN200 26/21 A2976 RMK AO2A SLP078 T02550205 $
CYQG 
19nm SE 
191400Z AUTO 24014G19KT 9SM SCT170 24/21 A2980 RMK SLP088 DENSITY ALT 2000FT
KDTW 
20nm S 
191353Z 23011KT 3SM HZ FEW012 BKN150 BKN230 23/20 A2981 RMK AO2 SFC VIS 6 SLP088 T02330200 $
TAF
KDET 
11nm SE 
191418Z 1914/2012 23010KT 5SM SHRA SCT015 BKN050 OVC100 TEMPO 1914/1915 2SM TSRA BKN015 OVC025CB FM191700 26013G20KT 4SM -SHRA SCT025 OVC045 TEMPO 1918/1921 2SM TSRA OVC025CB FM192100 VRB03KT P6SM SCT025 BKN045 OVC120 FM200100 23005KT P6SM SCT025 BKN045 FM201000 30005KT P6SM SCT045
KPTK 
13nm NW 
191139Z 1912/2012 23008KT P6SM BKN120 OVC200 TEMPO 1913/1916 4SM -SHRA BR OVC060 FM191600 26013G20KT 4SM -SHRA SCT025 OVC045 TEMPO 1916/1919 2SM TSRA OVC025CB FM191900 VRB03KT P6SM SCT025 BKN045 OVC120 FM200100 23005KT P6SM SCT025 BKN045 FM200900 33005KT P6SM SCT045
KMTC 
17nm E 
190900Z 1909/2015 VRB06KT 9999 SCT065 BKN250 510032 QNH2975INS BECMG 1917/1918 31012G18KT 8000 -SHRA SCT010 SCT015 BKN025 QNH2982INS TEMPO 1918/1921 31020G30KT 6000 -TSRA SCT010 BKN015CB OVC025 BECMG 1923/1924 18006KT 9999 NSW SCT015 BKN025 QNH2974INS BECMG 2002/2003 16006KT 8000 BR SCT010 BKN020 OVC025 QNH2974INS BECMG 2011/2012 VRB06KT 4800 BR BKN010 OVC020 QNH2976INS BECMG 2014/2015 VRB06KT 9999 NSW SCT020 QNH2977INS TX26/1916Z TN18/1919Z LAST NO AMDS AFT 1909 NEXT 1911
CYQG 
19nm SE 
191247Z 1912/2012 24010G20KT P6SM BKN170 TEMPO 1912/1914 5SM BR FM191700 28010KT P6SM -SHRA SCT020 OVC040 TEMPO 1917/1920 VRB15G25KT 1SM +TSRA BR BKN020 OVC040CB FM192000 03010KT P6SM BKN040 TEMPO 1920/2002 P6SM -SHRA PROB30 1920/1921 VRB15G25KT 1SM +TSRA BR BKN020 OVC040CB FM200200 VRB03KT P6SM FEW005 SCT060 PROB40 2005/2012 1SM BR RMK FCST BASED ON AUTO OBS. NXT FCST BY 191800Z
KDTW 
20nm S 
191417Z 1914/2018 23010KT 5SM SHRA SCT015 BKN050 OVC100 TEMPO 1914/1915 2SM TSRA BKN015 OVC025CB FM191700 26013G20KT 4SM -SHRA SCT025 OVC045 TEMPO 1918/1921 2SM TSRA OVC025CB FM192100 VRB03KT P6SM SCT025 BKN045 OVC120 FM200100 23005KT P6SM SCT025 BKN045 FM201000 30005KT P6SM SCT045
NOTAMs
Click for the latest NOTAMs
NOTAMs are issued by the DoD/FAA and will open in a separate window not controlled by AirNav.

 

 
 

FBO, Fuel Providers, and Aircraft Ground Support

  
 Business Name 
 
 Contact 
 
 Services / Description 
 
Fuel Prices
 
Comments
  
24hrfuel 248-781-0241
[web site]
Aviation fuel

More info about 24hrfuel
Titan
100LL Jet A
SS $4.80 $4.20 
 Updated 15-Jun-2021
 
   write
JDS Pump-N-Go 248-288-6100
[email]
Aviation fuel, Aircraft parking (ramp or tiedown), Hangar leasing / sales

More info about JDS Pump-N-Go
Avfuel
100LL Jet A
SS $5.37 $4.25 
 Updated 10-Jun-2021
 
   write
SS=Self service
Update Fuel Prices
 

Would you like to see your business listed on this page?

 If your business provides an interesting product or service to pilots, flight crews, aircraft, or users of the Oakland/Troy Airport, you should consider listing it here.  To start the listing process, click on the button below
 
Add a business
 

Other Pages about Oakland/Troy Airport

Oakland/Troy Airport Website
Page from the Michigan Airport Directory (PDF)
 
Update a link
 
Copyright © AirNav, LLC. All rights reserved. Privacy Policy  Contact